Terminal Aerodrome Forecast
Issued by NWS Bismarck, ND

Home | Current Version | Previous Version | Text Only | Print | Product List | Glossary Off
Versions: 1 2 3 4 5 6 7 8 9 10 11 12 13 14 15 16 17 18 19 20 21 22 23

022
FTUS43 KBIS 131607 AAC
TAFBIS
TAF AMD
KBIS 131607Z 1316/1412 14018KT P6SM -SN OVC018
     FM132100 15016KT 1SM -SN OVC010
     FM140600 16010KT 3SM -SN OVC010
     FM140900 26008KT P6SM VCSH OVC010=

USA.gov is the U.S. government's official web portal to all federal, state and local government web resources and services.